Time;durP1;ratioP1;P1;durP2;ratioP2;P2;SDS_P1;SDS_P2;PMS_P1;PMS_P2;Temp;Humidity;BMP_temperature;BMP_pressure;BME280_temperature;BME280_humidity;BME280_pressure;Samples;Min_cycle;Max_cycle;Signal;HPM_P1;HPM_P2
2024/01/11 00:01:57;;;;;;;;;0.00;0.00;;;;;0.46;100.00;102503.09;6182238;22;45268;-87
2024/01/11 00:04:22;;;;;;;;;0.00;0.00;;;;;0.44;100.00;102513.28;6180975;22;45330;-86
2024/01/11 00:06:49;;;;;;;;;0.00;0.00;;;;;0.42;100.00;102517.47;6181075;22;57531;-86
2024/01/11 00:09:14;;;;;;;;;0.00;0.00;;;;;0.37;100.00;102511.25;6207945;22;45278;-86
2024/01/11 00:11:40;;;;;;;;;0.00;0.00;;;;;0.33;100.00;102510.25;6180688;22;71019;-87
2024/01/11 00:14:05;;;;;;;;;3.00;3.00;;;;;0.31;100.00;102501.63;6156549;22;45658;-86
2024/01/11 00:16:30;;;;;;;;;0.00;0.00;;;;;0.27;100.00;102499.78;6207515;22;55315;-86
2024/01/11 00:18:56;;;;;;;;;0.00;0.00;;;;;0.29;100.00;102498.16;6155408;22;65446;-86
2024/01/11 00:21:21;;;;;;;;;0.00;0.00;;;;;0.28;100.00;102495.50;6181985;22;45342;-86
2024/01/11 00:23:46;;;;;;;;;0.00;0.00;;;;;0.28;100.00;102500.63;6206884;22;48251;-86
2024/01/11 00:26:13;;;;;;;;;0.00;0.00;;;;;0.25;100.00;102490.28;6180373;22;60690;-86
2024/01/11 00:28:38;;;;;;;;;0.00;0.00;;;;;0.25;100.00;102505.66;6207656;22;45202;-86
2024/01/11 00:31:04;;;;;;;;;0.00;0.00;;;;;0.25;100.00;102506.53;6181805;22;45466;-86
2024/01/11 00:33:30;;;;;;;;;0.00;0.00;;;;;0.23;100.00;102515.81;6181321;22;45350;-87
2024/01/11 00:35:55;;;;;;;;;0.00;0.00;;;;;0.21;100.00;102506.34;6182307;22;45471;-86
2024/01/11 00:38:20;;;;;;;;;0.00;0.00;;;;;0.22;100.00;102524.31;6155351;22;57057;-87
2024/01/11 00:40:46;;;;;;;;;0.00;0.00;;;;;0.21;100.00;102522.56;6156054;22;49237;-86
2024/01/11 00:43:11;;;;;;;;;3.00;3.00;;;;;0.24;100.00;102516.69;6180343;22;61007;-86
2024/01/11 00:45:37;;;;;;;;;0.00;0.00;;;;;0.34;100.00;102531.66;6181225;22;47909;-85
2024/01/11 00:48:03;;;;;;;;;0.00;0.00;;;;;0.40;100.00;102526.78;6180877;22;45254;-86
2024/01/11 00:50:28;;;;;;;;;0.00;0.00;;;;;0.48;100.00;102539.91;6155954;22;45369;-86
2024/01/11 00:52:53;;;;;;;;;0.00;0.00;;;;;0.50;100.00;102528.03;6156287;22;45421;-86
2024/01/11 00:55:19;;;;;;;;;0.00;0.00;;;;;0.57;100.00;102538.59;6180935;22;50687;-86
2024/01/11 00:57:44;;;;;;;;;0.00;0.00;;;;;0.64;100.00;102537.16;6207073;22;46830;-86
2024/01/11 01:00:13;;;;;;;;;0.00;0.00;;;;;0.69;100.00;102538.22;6181246;22;45221;-86
2024/01/11 01:02:39;;;;;;;;;0.00;0.00;;;;;0.78;100.00;102545.44;6207188;22;45355;-86
2024/01/11 01:05:06;;;;;;;;;0.00;0.00;;;;;0.81;100.00;102535.28;6181148;22;47234;-86
2024/01/11 01:07:31;;;;;;;;;0.75;0.75;;;;;0.87;100.00;102535.50;6207618;22;45233;-87
2024/01/11 01:09:56;;;;;;;;;0.00;0.00;;;;;0.91;100.00;102528.81;6181446;22;45466;-87
2024/01/11 01:12:22;;;;;;;;;0.00;0.00;;;;;1.00;100.00;102541.13;6155803;22;48352;-87
2024/01/11 01:14:47;;;;;;;;;1.00;1.00;;;;;1.00;100.00;102538.56;6180398;22;46940;-87
2024/01/11 01:17:12;;;;;;;;;0.00;0.00;;;;;1.07;100.00;102538.84;6180460;22;49548;-86
2024/01/11 01:19:38;;;;;;;;;3.00;3.00;;;;;1.09;100.00;102536.34;6155808;22;45518;-86
2024/01/11 01:22:03;;;;;;;;;0.00;0.00;;;;;1.12;100.00;102545.06;6155259;22;56443;-86
2024/01/11 01:24:28;;;;;;;;;0.00;0.00;;;;;1.12;100.00;102539.94;6206880;22;51324;-87
2024/01/11 01:26:54;;;;;;;;;3.00;3.00;;;;;1.16;100.00;102543.47;6180659;22;66012;-86
2024/01/11 01:29:19;;;;;;;;;0.00;0.00;;;;;1.17;100.00;102537.56;6155097;22;51271;-86
2024/01/11 01:31:45;;;;;;;;;0.00;0.00;;;;;1.14;100.00;102540.84;6155190;22;45148;-86
2024/01/11 01:34:11;;;;;;;;;0.00;0.00;;;;;1.10;100.00;102545.81;6207173;22;46377;-87
2024/01/11 01:36:36;;;;;;;;;0.00;0.00;;;;;1.03;100.00;102543.81;6181003;22;45218;-86
2024/01/11 01:39:03;;;;;;;;;0.00;0.00;;;;;1.01;100.00;102551.44;6155962;22;45250;-86
2024/01/11 01:41:28;;;;;;;;;0.00;0.00;;;;;0.94;100.00;102555.44;6181456;22;45253;-86
2024/01/11 01:43:54;;;;;;;;;0.00;0.00;;;;;0.91;100.00;102557.91;6207113;22;45487;-86
2024/01/11 01:46:23;;;;;;;;;0.00;0.00;;;;;0.84;100.00;102560.19;6155364;22;45217;-85
2024/01/11 01:48:48;;;;;;;;;0.00;0.00;;;;;0.77;100.00;102567.59;6180237;23;45259;-86
2024/01/11 01:51:14;;;;;;;;;0.00;0.00;;;;;0.74;100.00;102571.72;6180905;23;45434;-86
2024/01/11 01:53:40;;;;;;;;;0.00;0.00;;;;;0.72;100.00;102575.91;6180335;23;45883;-86
2024/01/11 01:56:06;;;;;;;;;7.00;6.00;;;;;0.68;100.00;102585.16;6181495;23;45246;-86
2024/01/11 01:58:31;;;;;;;;;0.00;0.00;;;;;0.64;100.00;102585.84;6180457;23;45314;-87
2024/01/11 02:00:57;;;;;;;;;0.00;0.00;;;;;0.60;100.00;102583.97;6179970;22;57771;-86
2024/01/11 02:03:24;;;;;;;;;6.25;6.25;;;;;0.60;100.00;102590.81;6155664;23;47001;-86
2024/01/11 02:05:51;;;;;;;;;0.00;0.00;;;;;0.56;100.00;102582.97;6207587;23;45229;-86
2024/01/11 02:08:20;;;;;;;;;0.00;0.00;;;;;0.54;100.00;102582.03;6181291;23;45246;-86
2024/01/11 02:10:46;;;;;;;;;0.00;0.00;;;;;0.51;100.00;102594.72;6155724;23;45510;-86
2024/01/11 02:13:12;;;;;;;;;0.00;0.00;;;;;0.50;100.00;102595.53;6180182;23;46540;-87
2024/01/11 02:15:38;;;;;;;;;3.00;3.00;;;;;0.51;100.00;102604.09;6181014;23;45279;-87
2024/01/11 02:18:04;;;;;;;;;0.00;0.00;;;;;0.47;100.00;102605.66;6155914;22;45297;-86
2024/01/11 02:20:29;;;;;;;;;0.00;0.00;;;;;0.44;100.00;102612.34;6180655;23;45489;-86
2024/01/11 02:23:00;;;;;;;;;0.00;0.00;;;;;0.48;100.00;102611.66;6154476;23;67180;-87
2024/01/11 02:25:25;;;;;;;;;0.00;0.00;;;;;0.44;100.00;102602.94;6155906;22;46098;-86
2024/01/11 02:27:51;;;;;;;;;0.00;0.00;;;;;0.44;100.00;102607.22;6156847;22;49323;-86
2024/01/11 02:30:17;;;;;;;;;0.00;0.00;;;;;0.46;100.00;102619.25;6209217;22;45146;-86
2024/01/11 02:32:46;;;;;;;;;0.00;0.00;;;;;0.45;100.00;102620.09;6208693;22;46907;-87
2024/01/11 02:35:12;;;;;;;;;0.00;0.00;;;;;0.44;100.00;102627.69;6157783;22;45823;-86
2024/01/11 02:37:39;;;;;;;;;4.00;4.00;;;;;0.43;100.00;102631.97;6157719;22;45290;-86
2024/01/11 02:40:06;;;;;;;;;0.00;0.00;;;;;0.46;100.00;102621.81;6209074;22;45202;-86
2024/01/11 02:42:31;;;;;;;;;0.00;0.00;;;;;0.41;100.00;102618.22;6181766;22;46750;-86
2024/01/11 02:44:56;;;;;;;;;0.00;0.00;;;;;0.36;100.00;102622.25;6156494;22;58850;-86
2024/01/11 02:47:22;;;;;;;;;0.00;0.00;;;;;0.37;100.00;102622.31;6182314;22;45400;-86
2024/01/11 02:49:47;;;;;;;;;0.00;0.00;;;;;0.34;100.00;102614.50;6182225;22;45438;-87
2024/01/11 02:52:12;;;;;;;;;0.00;0.00;;;;;0.34;100.00;102621.31;6157480;22;52181;-86
2024/01/11 02:54:38;;;;;;;;;0.00;0.00;;;;;0.33;100.00;102619.53;6181834;22;52358;-86
2024/01/11 02:57:04;;;;;;;;;0.00;0.00;;;;;0.31;100.00;102613.50;6157064;22;45351;-86
2024/01/11 02:59:29;;;;;;;;;0.00;0.00;;;;;0.33;100.00;102627.22;6209141;22;45575;-86
2024/01/11 03:01:54;;;;;;;;;0.00;0.00;;;;;0.28;100.00;102615.91;6182374;22;46249;-86
2024/01/11 03:04:20;;;;;;;;;26.33;26.33;;;;;0.29;100.00;102623.66;6155813;22;60866;-86
2024/01/11 03:06:46;;;;;;;;;0.00;0.00;;;;;0.27;100.00;102620.16;6157116;22;45391;-86
2024/01/11 03:09:12;;;;;;;;;0.00;0.00;;;;;0.24;100.00;102622.56;6182320;22;45509;-86
2024/01/11 03:11:37;;;;;;;;;0.00;0.00;;;;;0.26;100.00;102625.22;6156692;22;47174;-87
2024/01/11 03:14:03;;;;;;;;;0.00;0.00;;;;;0.23;100.00;102620.84;6182315;22;45306;-86
2024/01/11 03:16:28;;;;;;;;;0.00;0.00;;;;;0.24;100.00;102627.69;6182616;22;45292;-86
2024/01/11 03:18:54;;;;;;;;;0.00;0.00;;;;;0.25;100.00;102636.28;6182315;22;45368;-86
2024/01/11 03:21:19;;;;;;;;;0.00;0.00;;;;;0.24;100.00;102640.50;6288307;22;47367;-86
2024/01/11 03:23:44;;;;;;;;;0.00;0.00;;;;;0.21;100.00;102640.41;6182034;22;45343;-86
2024/01/11 03:26:17;;;;;;;;;0.00;0.00;;;;;0.19;100.00;102632.63;6155918;22;58159;-86
2024/01/11 03:28:43;;;;;;;;;0.00;0.00;;;;;0.22;100.00;102634.44;6181848;22;45345;-86
2024/01/11 03:31:09;;;;;;;;;1.50;1.50;;;;;0.22;100.00;102631.00;6181648;22;47130;-86
2024/01/11 03:33:34;;;;;;;;;0.00;0.00;;;;;0.20;100.00;102633.50;6182036;22;45269;-86
2024/01/11 03:35:59;;;;;;;;;2.00;0.00;;;;;0.16;100.00;102634.19;6181361;22;50460;-87
2024/01/11 03:38:25;;;;;;;;;0.00;0.00;;;;;0.18;100.00;102637.69;6182052;22;45167;-86
2024/01/11 03:40:51;;;;;;;;;0.00;0.00;;;;;0.18;100.00;102632.56;6156404;22;47141;-86
2024/01/11 03:43:17;;;;;;;;;0.00;0.00;;;;;0.17;100.00;102636.81;6157424;22;45266;-86
2024/01/11 03:45:43;;;;;;;;;0.00;0.00;;;;;0.13;100.00;102634.03;6156975;22;45228;-86
2024/01/11 03:48:08;;;;;;;;;0.00;0.00;;;;;0.11;100.00;102644.25;6181475;22;46858;-87
2024/01/11 03:50:33;;;;;;;;;0.00;0.00;;;;;0.09;100.00;102640.69;6156069;22;62764;-86
2024/01/11 03:52:59;;;;;;;;;0.00;0.00;;;;;0.07;100.00;102633.78;6207723;22;54072;-87
2024/01/11 03:55:24;;;;;;;;;0.00;0.00;;;;;0.03;100.00;102634.44;6156346;22;45487;-87
2024/01/11 03:57:52;;;;;;;;;0.00;0.00;;;;;0.04;100.00;102634.53;6182539;22;45550;-86
2024/01/11 04:00:18;;;;;;;;;0.00;0.00;;;;;0.00;100.00;102635.19;6208081;22;47037;-86
2024/01/11 04:02:43;;;;;;;;;0.00;0.00;;;;;-0.02;100.00;102640.25;6156744;22;45658;-86
2024/01/11 04:05:08;;;;;;;;;0.00;0.00;;;;;-0.04;100.00;102644.44;6181987;22;45291;-87
2024/01/11 04:07:34;;;;;;;;;0.00;0.00;;;;;-0.12;100.00;102622.69;6181815;22;45246;-87
2024/01/11 04:10:00;;;;;;;;;0.00;0.00;;;;;-0.08;100.00;102646.75;6156320;22;48131;-87
2024/01/11 04:12:25;;;;;;;;;0.75;0.75;;;;;-0.15;100.00;102643.03;6156086;22;45221;-86
2024/01/11 04:14:50;;;;;;;;;0.00;0.00;;;;;-0.11;100.00;102652.63;6155577;22;61567;-87
2024/01/11 04:17:16;;;;;;;;;7.00;7.00;;;;;-0.11;100.00;102656.84;6182033;22;45209;-86
2024/01/11 04:19:41;;;;;;;;;0.00;0.00;;;;;-0.08;100.00;102662.13;6156465;22;47962;-86
2024/01/11 04:22:06;;;;;;;;;9.00;9.00;;;;;-0.15;100.00;102655.84;6155557;22;55329;-86
2024/01/11 04:24:32;;;;;;;;;0.00;0.00;;;;;-0.12;100.00;102661.09;6155789;22;45375;-86
2024/01/11 04:26:57;;;;;;;;;0.00;0.00;;;;;-0.08;100.00;102664.69;6181074;22;45461;-86
2024/01/11 04:29:22;;;;;;;;;0.00;0.00;;;;;-0.11;100.00;102655.19;6155843;22;46971;-86
2024/01/11 04:31:48;;;;;;;;;0.00;0.00;;;;;-0.08;100.00;102665.56;6180808;22;49018;-86
2024/01/11 04:34:13;;;;;;;;;58.00;45.00;;;;;-0.07;100.00;102662.19;6155960;22;45300;-86
2024/01/11 04:36:39;;;;;;;;;0.00;0.00;;;;;-0.09;100.00;102660.38;6207567;22;59054;-86
2024/01/11 04:39:06;;;;;;;;;0.00;0.00;;;;;-0.05;100.00;102678.50;6180758;22;45456;-86
2024/01/11 04:41:31;;;;;;;;;1.00;1.00;;;;;-0.06;100.00;102666.50;6181363;22;45377;-86
2024/01/11 04:43:57;;;;;;;;;0.00;0.00;;;;;-0.03;100.00;102676.03;6208050;22;45416;-86
2024/01/11 04:46:23;;;;;;;;;39.50;17.00;;;;;-0.03;100.00;102674.31;6155873;22;45345;-86
2024/01/11 04:48:49;;;;;;;;;0.00;0.00;;;;;0.00;100.00;102678.72;6155303;22;47206;-86
2024/01/11 04:51:15;;;;;;;;;3.00;3.00;;;;;-0.01;100.00;102680.38;6180742;22;45372;-86
2024/01/11 04:53:41;;;;;;;;;0.00;0.00;;;;;0.03;100.00;102683.09;6180406;22;45229;-87
2024/01/11 04:56:07;;;;;;;;;5.25;4.50;;;;;-0.01;100.00;102669.28;6181139;22;45320;-86
2024/01/11 04:58:33;;;;;;;;;0.75;0.75;;;;;0.04;100.00;102672.94;6207410;22;45284;-86
2024/01/11 05:00:58;;;;;;;;;16.00;7.00;;;;;0.02;100.00;102673.66;6207679;22;45268;-86
2024/01/11 05:03:24;;;;;;;;;0.00;0.00;;;;;0.05;100.00;102679.78;6181410;22;45265;-87
2024/01/11 05:05:49;;;;;;;;;0.00;0.00;;;;;0.02;100.00;102681.34;6154786;22;59802;-86
2024/01/11 05:08:14;;;;;;;;;0.00;0.00;;;;;0.03;100.00;102686.53;6179379;22;61745;-86
2024/01/11 05:10:39;;;;;;;;;0.00;0.00;;;;;0.02;100.00;102683.91;6154888;22;71996;-86
2024/01/11 05:13:05;;;;;;;;;0.00;0.00;;;;;0.03;100.00;102685.66;6155255;22;69084;-86
2024/01/11 05:15:30;;;;;;;;;0.00;0.00;;;;;0.05;100.00;102690.03;6180568;22;52393;-85
2024/01/11 05:17:58;;;;;;;;;0.00;0.00;;;;;0.05;100.00;102681.47;6155166;22;65590;-86
2024/01/11 05:20:24;;;;;;;;;0.00;0.00;;;;;0.05;100.00;102684.91;6181066;22;45389;-85
2024/01/11 05:22:49;;;;;;;;;0.00;0.00;;;;;0.06;100.00;102683.25;6180327;22;45457;-86
2024/01/11 05:25:14;;;;;;;;;4.00;4.00;;;;;0.10;100.00;102692.81;6207016;22;48599;-86
2024/01/11 05:27:40;;;;;;;;;0.00;0.00;;;;;0.06;100.00;102681.56;6154980;22;65233;-86
2024/01/11 05:30:06;;;;;;;;;0.00;0.00;;;;;0.08;100.00;102681.63;6207298;22;45175;-86
2024/01/11 05:32:31;;;;;;;;;2.25;2.25;;;;;0.05;100.00;102678.91;6180159;22;45191;-86
2024/01/11 05:34:57;;;;;;;;;0.00;0.00;;;;;0.04;100.00;102679.72;6207805;22;49914;-86
2024/01/11 05:37:22;;;;;;;;;0.00;0.00;;;;;0.02;100.00;102674.56;6180289;22;47125;-86
2024/01/11 05:39:47;;;;;;;;;0.00;0.00;;;;;0.02;100.00;102683.91;6180347;22;54995;-86
2024/01/11 05:42:13;;;;;;;;;0.00;0.00;;;;;-0.01;100.00;102679.53;6207538;22;45578;-86
2024/01/11 05:44:38;;;;;;;;;0.00;0.00;;;;;0.00;100.00;102691.53;6180831;22;45448;-86
2024/01/11 05:47:04;;;;;;;;;0.00;0.00;;;;;-0.03;100.00;102694.81;6181238;22;45259;-86
2024/01/11 05:49:29;;;;;;;;;0.00;0.00;;;;;-0.08;100.00;102695.41;6155564;22;45841;-86
2024/01/11 05:51:54;;;;;;;;;0.00;0.00;;;;;-0.09;100.00;102696.22;6179820;23;57818;-86
2024/01/11 05:54:20;;;;;;;;;0.00;0.00;;;;;-0.13;100.00;102702.88;6155218;22;53869;-86
2024/01/11 05:56:45;;;;;;;;;0.00;0.00;;;;;-0.15;100.00;102698.47;6206756;23;59957;-86
2024/01/11 05:59:10;;;;;;;;;0.00;0.00;;;;;-0.21;100.00;102699.94;6156334;22;48550;-86
2024/01/11 06:01:41;;;;;;;;;0.00;0.00;;;;;-0.18;100.00;102706.03;6157060;22;65549;-86
2024/01/11 06:04:07;;;;;;;;;0.00;0.00;;;;;-0.26;100.00;102709.09;6183826;22;45207;-86
2024/01/11 06:06:32;;;;;;;;;0.00;0.00;;;;;-0.27;100.00;102720.13;6181970;22;52236;-86
2024/01/11 06:08:57;;;;;;;;;0.00;0.00;;;;;-0.32;100.00;102726.72;6182536;22;48678;-86
2024/01/11 06:11:22;;;;;;;;;0.00;0.00;;;;;-0.37;100.00;102717.97;6183026;22;45270;-86
2024/01/11 06:13:48;;;;;;;;;0.00;0.00;;;;;-0.39;100.00;102722.09;6182398;22;48958;-86
2024/01/11 06:16:13;;;;;;;;;0.00;0.00;;;;;-0.42;100.00;102732.22;6183493;22;45919;-88
2024/01/11 06:18:39;;;;;;;;;0.00;0.00;;;;;-0.41;100.00;102741.63;6157343;22;45276;-89
2024/01/11 06:21:06;;;;;;;;;0.00;0.00;;;;;-0.43;100.00;102759.50;6181457;22;45313;-87
2024/01/11 06:23:32;;;;;;;;;0.00;0.00;;;;;-0.49;100.00;102743.81;6181033;22;45662;-87
2024/01/11 06:25:57;;;;;;;;;0.00;0.00;;;;;-0.48;100.00;102753.25;6180638;22;71438;-87
2024/01/11 06:28:22;;;;;;;;;0.00;0.00;;;;;-0.53;100.00;102748.72;6155857;22;72797;-86
2024/01/11 06:30:48;;;;;;;;;0.00;0.00;;;;;-0.53;100.00;102753.84;6156687;22;45836;-88
2024/01/11 06:33:13;;;;;;;;;0.00;0.00;;;;;-0.60;100.00;102738.16;6182002;22;45483;-86
2024/01/11 06:35:41;;;;;;;;;0.00;0.00;;;;;-0.57;100.00;102745.13;6181261;22;46122;-88
2024/01/11 06:38:07;;;;;;;;;0.00;0.00;;;;;-0.62;100.00;102744.91;6182455;22;45383;-84
2024/01/11 06:40:32;;;;;;;;;0.00;0.00;;;;;-0.58;100.00;102758.72;6182249;22;45479;-87
2024/01/11 06:42:58;;;;;;;;;0.00;0.00;;;;;-0.60;100.00;102768.88;6156453;22;58342;-86
2024/01/11 06:45:23;;;;;;;;;0.00;0.00;;;;;-0.61;100.00;102772.25;6156696;22;47829;-86
2024/01/11 06:47:49;;;;;;;;;0.00;0.00;;;;;-0.61;100.00;102777.38;6156190;22;45220;-85
2024/01/11 06:50:14;;;;;;;;;0.00;0.00;;;;;-0.59;100.00;102787.69;6180065;22;47574;-88
2024/01/11 06:52:39;;;;;;;;;0.00;0.00;;;;;-0.61;100.00;102789.28;6208051;22;54356;-87
2024/01/11 06:55:05;;;;;;;;;0.00;0.00;;;;;-0.64;100.00;102791.69;6208641;22;45984;-87
2024/01/11 06:57:31;;;;;;;;;0.00;0.00;;;;;-0.65;100.00;102793.38;6182234;22;45519;-86
2024/01/11 06:59:59;;;;;;;;;0.00;0.00;;;;;-0.64;100.00;102795.09;6208621;22;45252;-86
2024/01/11 07:02:31;;;;;;;;;0.00;0.00;;;;;-0.60;100.00;102803.81;6157005;22;45624;-87
2024/01/11 07:04:56;;;;;;;;;0.00;0.00;;;;;-0.64;100.00;102795.09;6182579;22;46530;-87
2024/01/11 07:07:26;;;;;;;;;265.00;265.00;;;;;-0.60;100.00;102807.25;6181893;22;45338;-87
2024/01/11 07:09:54;;;;;;;;;0.00;0.00;;;;;-0.63;100.00;102802.00;6157455;22;45399;-86
2024/01/11 07:12:20;;;;;;;;;0.00;0.00;;;;;-0.63;100.00;102799.44;6182043;22;45519;-86
2024/01/11 07:14:45;;;;;;;;;0.00;0.00;;;;;-0.61;100.00;102809.75;6180860;22;59336;-87
2024/01/11 07:17:10;;;;;;;;;0.00;0.00;;;;;-0.63;100.00;102796.00;6180903;22;68086;-85
2024/01/11 07:19:36;;;;;;;;;0.00;0.00;;;;;-0.63;100.00;102790.88;6208063;22;45364;-86
2024/01/11 07:22:05;;;;;;;;;0.00;0.00;;;;;-0.65;100.00;102801.03;6181486;22;45471;-87
2024/01/11 07:24:37;;;;;;;;;0.00;0.00;;;;;-0.63;100.00;102808.78;6154862;22;74552;-86
2024/01/11 07:27:08;;;;;;;;;0.00;0.00;;;;;-0.66;100.00;102809.50;6182926;22;45412;-91
2024/01/11 07:29:34;;;;;;;;;1.00;1.00;;;;;-0.64;100.00;102817.25;6182192;22;45350;-86
2024/01/11 07:32:00;;;;;;;;;0.00;0.00;;;;;-0.65;100.00;102824.06;6182650;22;45218;-87
2024/01/11 07:34:26;;;;;;;;;0.00;0.00;;;;;-0.67;100.00;102823.09;6208772;22;46263;-88
2024/01/11 07:36:54;;;;;;;;;3.00;3.00;;;;;-0.69;100.00;102822.13;6157391;22;45451;-89
2024/01/11 07:39:34;;;;;;;;;;;;;;;;;;;;;
2024/01/11 07:41:59;;;;;;;;;0.00;0.00;;;;;-0.60;100.00;102832.81;6184332;22;70169;-90
2024/01/11 07:44:58;;;;;;;;;0.00;0.00;;;;;-0.59;100.00;102819.25;6157847;22;46974;-88
2024/01/11 07:47:26;;;;;;;;;3.00;3.00;;;;;-0.54;100.00;102828.81;6162062;22;45262;-92
2024/01/11 07:49:51;;;;;;;;;0.00;0.00;;;;;-0.50;100.00;102823.94;6177914;22;45584;-86
2024/01/11 07:52:17;;;;;;;;;24.00;24.00;;;;;-0.43;100.00;102838.81;6185779;22;45261;-89
2024/01/11 07:54:42;;;;;;;;;0.00;0.00;;;;;-0.40;100.00;102831.25;6186906;22;53489;-84
2024/01/11 07:57:18;;;;;;;;;0.00;0.00;;;;;-0.34;100.00;102840.06;6162002;22;54600;-87
2024/01/11 07:59:43;;;;;;;;;0.00;0.00;;;;;-0.32;100.00;102835.88;6187895;22;45226;-90
2024/01/11 08:02:19;;;;;;;;;;;;;;;;;;;;;
2024/01/11 08:04:47;;;;;;;;;0.00;0.00;;;;;-0.23;100.00;102850.00;6189369;22;74401;-88
2024/01/11 08:07:12;;;;;;;;;1.00;1.00;;;;;-0.23;100.00;102850.00;6161394;22;45281;-88
2024/01/11 08:09:45;;;;;;;;;0.00;0.00;;;;;-0.17;100.00;102856.25;6163338;22;45301;-91
2024/01/11 08:12:13;;;;;;;;;0.00;0.00;;;;;-0.18;100.00;102851.94;6183631;22;45410;-87
2024/01/11 08:14:49;;;;;;;;;;;;;;;;;;;;;
2024/01/11 08:17:19;;;;;;;;;0.00;0.00;;;;;-0.09;100.00;102857.50;6178145;22;72098;-90
2024/01/11 08:19:49;;;;;;;;;2.00;2.00;;;;;-0.08;100.00;102846.44;6158389;22;45274;-91
2024/01/11 08:22:56;;;;;;;;;;;;;;;;;;;;;
2024/01/11 08:25:54;;;;;;;;;0.00;0.00;;;;;-0.03;100.00;102843.31;6184367;22;75433;-91
2024/01/11 08:28:28;;;;;;;;;0.00;0.00;;;;;0.05;100.00;102851.34;6182709;22;45179;-91
2024/01/11 08:31:23;;;;;;;;;0.00;0.00;;;;;0.07;100.00;102848.88;6156910;22;45450;-90
2024/01/11 08:33:52;;;;;;;;;1.50;0.25;;;;;0.11;100.00;102844.00;6184115;22;45378;-88
2024/01/11 08:36:18;;;;;;;;;7.00;7.00;;;;;0.16;100.00;102859.56;6207190;22;45445;-89
2024/01/11 08:38:43;;;;;;;;;0.00;0.00;;;;;0.22;100.00;102857.28;6153739;22;46229;-90
2024/01/11 08:41:08;;;;;;;;;0.00;0.00;;;;;0.25;100.00;102854.88;6175275;22;47758;-88
2024/01/11 08:43:34;;;;;;;;;0.00;0.00;;;;;0.31;100.00;102864.53;6153462;22;45349;-86
2024/01/11 08:45:59;;;;;;;;;0.00;0.00;;;;;0.31;100.00;102857.72;6205412;22;45509;-86
2024/01/11 08:48:28;;;;;;;;;0.00;0.00;;;;;0.37;100.00;102859.69;6155168;22;45395;-86
2024/01/11 08:50:54;;;;;;;;;0.00;0.00;;;;;0.45;100.00;102867.78;6155227;22;45548;-88
2024/01/11 08:53:22;;;;;;;;;0.00;0.00;;;;;0.48;100.00;102865.31;6174406;23;51070;-88
2024/01/11 08:55:47;;;;;;;;;0.00;0.00;;;;;0.52;100.00;102868.13;6150803;23;48643;-88
2024/01/11 08:58:16;;;;;;;;;2.25;2.25;;;;;0.55;100.00;102862.25;6175597;22;45261;-88
2024/01/11 09:00:44;;;;;;;;;0.00;0.00;;;;;0.60;100.00;102872.72;6175785;22;52002;-88
2024/01/11 09:03:11;;;;;;;;;0.00;0.00;;;;;0.64;100.00;102865.22;6176415;22;45814;-87
2024/01/11 09:05:37;;;;;;;;;0.00;0.00;;;;;0.66;100.00;102862.75;6176042;22;45499;-84
2024/01/11 09:08:05;;;;;;;;;0.00;0.00;;;;;0.69;100.00;102873.16;6176548;23;49904;-91
2024/01/11 09:10:32;;;;;;;;;0.00;0.00;;;;;0.71;100.00;102871.53;6152000;23;45217;-90
2024/01/11 09:12:57;;;;;;;;;0.00;0.00;;;;;0.72;100.00;102873.28;6177665;22;45551;-92
2024/01/11 09:15:22;;;;;;;;;0.00;0.00;;;;;0.78;100.00;102881.25;6149501;23;62064;-91
2024/01/11 09:17:48;;;;;;;;;0.00;0.00;;;;;0.80;100.00;102889.91;6149902;23;64636;-88
2024/01/11 09:20:14;;;;;;;;;0.00;0.00;;;;;0.80;100.00;102879.66;6175945;22;45881;-87
2024/01/11 09:22:39;;;;;;;;;0.00;0.00;;;;;0.83;100.00;102876.34;6176154;23;45196;-88
2024/01/11 09:25:07;;;;;;;;;0.00;0.00;;;;;0.85;100.00;102882.41;6149944;23;47557;-88
2024/01/11 09:27:32;;;;;;;;;1.00;1.00;;;;;0.89;100.00;102885.19;6175257;23;45289;-86
2024/01/11 09:29:58;;;;;;;;;2.67;2.67;;;;;0.91;100.00;102878.44;6149169;23;51215;-85
2024/01/11 09:32:33;;;;;;;;;3.00;3.00;;;;;0.96;100.00;102878.63;6176720;23;45306;-91
2024/01/11 09:34:58;;;;;;;;;0.00;0.00;;;;;1.04;100.00;102877.31;6175407;23;47200;-91
2024/01/11 09:37:24;;;;;;;;;1.00;1.00;;;;;1.05;100.00;102885.88;6149512;23;45360;-85
2024/01/11 09:39:49;;;;;;;;;3.00;3.00;;;;;1.11;100.00;102886.13;6176405;22;45186;-84
2024/01/11 09:42:14;;;;;;;;;1.00;1.00;;;;;1.16;100.00;102872.69;6174722;23;65159;-85
2024/01/11 09:44:40;;;;;;;;;0.00;0.00;;;;;1.25;100.00;102891.91;6174710;22;46687;-88
2024/01/11 09:47:08;;;;;;;;;0.75;0.75;;;;;1.29;100.00;102880.94;6149038;23;48837;-86
2024/01/11 09:49:38;;;;;;;;;0.00;0.00;;;;;1.33;100.00;102888.84;6175578;23;45313;-87
2024/01/11 09:52:05;;;;;;;;;0.00;0.00;;;;;1.37;100.00;102878.72;6150136;23;45365;-88
2024/01/11 09:54:33;;;;;;;;;0.00;0.00;;;;;1.41;100.00;102884.06;6151309;23;47894;-92
2024/01/11 09:57:03;;;;;;;;;3.00;3.00;;;;;1.45;100.00;102874.78;6150013;22;45339;-89
2024/01/11 09:59:28;;;;;;;;;4.00;4.00;;;;;1.48;100.00;102872.34;6176317;23;45285;-89
2024/01/11 10:01:54;;;;;;;;;1.50;0.50;;;;;1.50;100.00;102863.03;6151432;22;48311;-90
2024/01/11 10:04:21;;;;;;;;;1.00;1.00;;;;;1.53;100.00;102864.03;6176664;22;47461;-94
2024/01/11 10:07:24;;;;;;;;;;;;;;;;;;;;;
2024/01/11 10:09:50;;;;;;;;;0.00;0.00;;;;;1.60;100.00;102878.00;6172406;23;69068;-90
2024/01/11 10:12:33;;;;;;;;;0.00;0.00;;;;;1.62;100.00;102878.97;6150466;23;45548;-89
2024/01/11 10:15:39;;;;;;;;;;;;;;;;;;;;;
2024/01/11 10:18:07;;;;;;;;;0.00;0.00;;;;;1.71;100.00;102876.78;6175117;23;73119;-93
2024/01/11 10:20:36;;;;;;;;;1.00;1.00;;;;;1.76;100.00;102883.78;6177449;23;45389;-91
2024/01/11 10:23:14;;;;;;;;;0.00;0.00;;;;;1.84;100.00;102884.97;6149982;23;45386;-91
2024/01/11 10:25:42;;;;;;;;;4.00;4.00;;;;;1.89;100.00;102868.06;6153422;23;47888;-92
2024/01/11 10:28:07;;;;;;;;;3.75;3.75;;;;;1.95;100.00;102845.22;6149670;23;71951;-91
2024/01/11 10:30:33;;;;;;;;;3.00;3.00;;;;;2.01;100.00;102855.72;6173960;22;45376;-87
2024/01/11 10:32:59;;;;;;;;;0.00;0.00;;;;;2.06;100.00;102850.75;6176695;22;45202;-91
2024/01/11 10:35:25;;;;;;;;;1.00;1.00;;;;;2.11;100.00;102849.25;6151136;22;58257;-89
2024/01/11 10:38:00;;;;;;;;;0.00;0.00;;;;;2.23;100.00;102848.84;6151771;23;45718;-93
2024/01/11 10:40:28;;;;;;;;;0.00;0.00;;;;;2.29;100.00;102844.84;6176507;23;45235;-90
2024/01/11 10:42:58;;;;;;;;;0.00;0.00;;;;;2.40;100.00;102836.69;6174378;22;45333;-90
2024/01/11 10:45:27;;;;;;;;;0.75;0.75;;;;;2.49;100.00;102847.31;6150851;23;48275;-90
2024/01/11 10:48:08;;;;;;;;;0.00;0.00;;;;;2.55;100.00;102844.97;6178048;22;45352;-91
2024/01/11 10:50:43;;;;;;;;;6.50;6.50;;;;;2.66;100.00;102853.09;6153800;23;45276;-90
2024/01/11 10:53:08;;;;;;;;;3.50;3.50;;;;;2.76;100.00;102864.59;6152682;22;45579;-90
2024/01/11 10:55:43;;;;;;;;;0.00;0.00;;;;;2.90;100.00;102866.88;6177925;22;45221;-90
2024/01/11 10:58:10;;;;;;;;;1.50;1.50;;;;;3.04;100.00;102845.91;6178321;23;45316;-89
2024/01/11 11:00:44;;;;;;;;;1.00;1.00;;;;;3.22;100.00;102854.28;6152488;23;45333;-89
2024/01/11 11:03:11;;;;;;;;;0.00;0.00;;;;;3.44;100.00;102855.91;6177045;23;45560;-89
2024/01/11 11:05:36;;;;;;;;;3.00;1.00;;;;;3.72;100.00;102859.44;6151961;23;47160;-88
2024/01/11 11:08:02;;;;;;;;;0.00;0.00;;;;;4.34;100.00;102853.66;6177246;22;45692;-88
2024/01/11 11:10:28;;;;;;;;;0.75;0.75;;;;;7.20;100.00;102837.47;6176513;23;45539;-90
2024/01/11 11:13:01;;;;;;;;;0.00;0.00;;;;;8.44;100.00;102840.38;6151508;23;45456;-89
2024/01/11 11:15:38;;;;;;;;;;;;;;;;;;;;;
2024/01/11 11:18:13;;;;;;;;;0.00;0.00;;;;;11.23;100.00;102846.91;6176628;23;73022;-90
2024/01/11 11:20:42;;;;;;;;;13.00;3.00;;;;;13.21;100.00;102855.25;6176665;23;45440;-90
2024/01/11 11:23:09;;;;;;;;;0.00;0.00;;;;;14.53;100.00;102846.22;6175870;23;45317;-88
2024/01/11 11:28:48;;;;;;;;;0.00;0.00;;;;;16.21;100.00;102854.25;6273426;22;45349;-93
2024/01/11 11:31:37;;;;;;;;;0.00;0.00;;;;;16.74;99.64;102861.06;6222868;22;45426;-96
2024/01/11 11:41:05;;;;;;;;;1.50;1.50;;;;;17.42;88.95;102852.53;5873875;24;45433;-90
2024/01/11 11:43:50;;;;;;;;;1.50;1.50;;;;;17.57;93.36;102860.09;5869590;24;45414;-96